createdAt,value
2023-05-17T00:00:33.035Z,101745.53
2023-05-17T00:03:24.294Z,101753.06
2023-05-17T00:06:09.500Z,101756.13
2023-05-17T00:09:01.226Z,101752.31
2023-05-17T00:11:46.073Z,101748.78
2023-05-17T00:14:37.220Z,101745.00
2023-05-17T00:17:22.185Z,101750.81
2023-05-17T00:20:14.252Z,101754.00
2023-05-17T00:22:59.377Z,101757.44
2023-05-17T00:25:51.308Z,101759.06
2023-05-17T00:28:36.221Z,101762.19
2023-05-17T00:31:27.252Z,101764.47
2023-05-17T00:34:11.998Z,101758.94
2023-05-17T00:37:04.220Z,101759.06
2023-05-17T00:39:48.993Z,101755.34
2023-05-17T00:42:40.216Z,101769.66
2023-05-17T00:45:31.262Z,101766.25
2023-05-17T00:48:31.372Z,101771.00
2023-05-17T00:51:19.047Z,101763.78
2023-05-17T00:54:11.235Z,101766.56
2023-05-17T00:56:57.657Z,101765.84
2023-05-17T00:59:51.241Z,101771.34
2023-05-17T01:02:36.277Z,101777.50
2023-05-17T01:05:28.468Z,101773.19
2023-05-17T01:08:13.592Z,101775.44
2023-05-17T01:11:17.266Z,101775.09
2023-05-17T01:14:34.227Z,101778.19
2023-05-17T01:17:29.190Z,101780.38
2023-05-17T01:20:28.342Z,101777.75
2023-05-17T01:23:57.245Z,101783.63
2023-05-17T01:26:53.241Z,101782.22
2023-05-17T01:29:46.240Z,101796.38
2023-05-17T01:32:39.267Z,101780.53
2023-05-17T01:35:31.352Z,101789.16
2023-05-17T01:38:16.589Z,101784.72
2023-05-17T01:41:30.238Z,101794.44
2023-05-17T01:44:59.768Z,101789.16
2023-05-17T01:48:03.292Z,101806.72
2023-05-17T01:50:57.257Z,101804.19
2023-05-17T01:53:49.601Z,101814.75
2023-05-17T01:56:43.256Z,101817.16
2023-05-17T01:59:30.716Z,101823.41
2023-05-17T02:02:22.303Z,101818.22
2023-05-17T02:05:07.927Z,101825.81
2023-05-17T02:07:59.238Z,101833.38
2023-05-17T02:10:44.184Z,101833.75
2023-05-17T02:13:36.242Z,101837.09
2023-05-17T02:16:21.413Z,101838.19
2023-05-17T02:19:15.368Z,101840.94
2023-05-17T02:22:00.356Z,101836.00
2023-05-17T02:24:53.267Z,101836.22
2023-05-17T02:27:38.666Z,101843.31
2023-05-17T02:30:31.263Z,101838.03
2023-05-17T02:33:16.213Z,101844.69
2023-05-17T02:36:08.272Z,101845.94
2023-05-17T02:38:53.120Z,101847.50
2023-05-17T02:41:45.266Z,101844.00
2023-05-17T02:44:30.316Z,101850.34
2023-05-17T02:47:28.373Z,101843.97
2023-05-17T02:50:13.219Z,101860.75
2023-05-17T02:53:04.256Z,101853.66
2023-05-17T02:55:48.990Z,101853.66
2023-05-17T02:58:40.255Z,101858.59
2023-05-17T03:01:25.182Z,101858.66
2023-05-17T03:04:17.280Z,101858.50
2023-05-17T03:07:02.582Z,101866.66
2023-05-17T03:09:55.271Z,101866.72
2023-05-17T03:12:46.245Z,101865.94
2023-05-17T03:15:38.337Z,101873.84
2023-05-17T03:18:23.289Z,101865.25
2023-05-17T03:21:14.278Z,101872.09
2023-05-17T03:23:59.190Z,101866.81
2023-05-17T03:26:50.272Z,101869.22
2023-05-17T03:29:35.487Z,101878.59
2023-05-17T03:32:27.268Z,101876.97
2023-05-17T03:35:18.307Z,101887.13
2023-05-17T03:38:03.267Z,101882.81
2023-05-17T03:40:54.289Z,101882.78
2023-05-17T03:43:46.292Z,101886.19
2023-05-17T03:46:52.277Z,101891.00
2023-05-17T03:49:44.290Z,101890.56
2023-05-17T03:52:29.323Z,101889.22
2023-05-17T03:55:21.279Z,101893.31
2023-05-17T03:58:13.286Z,101900.53
2023-05-17T04:01:04.296Z,101901.88
2023-05-17T04:03:55.321Z,101910.66
2023-05-17T04:06:47.298Z,101910.03
2023-05-17T04:09:34.826Z,101916.66
2023-05-17T04:12:26.296Z,101921.63
2023-05-17T04:15:18.312Z,101919.63
2023-05-17T04:18:03.629Z,101918.28
2023-05-17T04:20:55.293Z,101923.28
2023-05-17T04:23:47.276Z,101926.81
2023-05-17T04:26:32.913Z,101931.41
2023-05-17T04:29:24.279Z,101929.91
2023-05-17T04:32:16.295Z,101936.09
2023-05-17T04:35:01.784Z,101936.97
2023-05-17T04:37:53.279Z,101947.19
2023-05-17T04:40:45.280Z,101941.84
2023-05-17T04:43:38.283Z,101944.31
2023-05-17T04:46:43.320Z,101945.91
2023-05-17T04:49:34.303Z,101950.56
2023-05-17T04:52:19.267Z,101945.00
2023-05-17T04:55:11.289Z,101942.97
2023-05-17T04:57:56.121Z,101945.06
2023-05-17T05:00:47.286Z,101950.09
2023-05-17T05:03:32.565Z,101954.78
2023-05-17T05:06:24.288Z,101961.41
2023-05-17T05:09:16.289Z,101958.19
2023-05-17T05:12:01.387Z,101963.34
2023-05-17T05:14:52.273Z,101966.69
2023-05-17T05:17:37.573Z,101962.38
2023-05-17T05:20:29.290Z,101976.44
2023-05-17T05:23:21.275Z,101963.69
2023-05-17T05:26:12.300Z,101972.47
2023-05-17T05:29:06.206Z,101975.72
2023-05-17T05:31:57.307Z,101976.19
2023-05-17T05:34:48.290Z,101977.06
2023-05-17T05:37:39.301Z,101964.06
2023-05-17T05:40:24.180Z,101978.75
2023-05-17T05:43:16.291Z,101983.56
2023-05-17T05:46:08.298Z,101986.31
2023-05-17T05:49:07.403Z,101981.16
2023-05-17T05:51:58.315Z,101981.28
2023-05-17T05:54:44.820Z,101983.19
2023-05-17T05:57:36.333Z,101981.66
2023-05-17T06:00:21.924Z,101987.53
2023-05-17T06:03:13.311Z,101992.28
2023-05-17T06:05:59.142Z,101998.34
2023-05-17T06:08:52.293Z,102010.47
2023-05-17T06:11:37.490Z,102006.53
2023-05-17T06:14:29.319Z,102012.28
2023-05-17T06:17:21.367Z,102004.94
2023-05-17T06:20:13.305Z,102009.03
2023-05-17T06:22:58.420Z,102018.53
2023-05-17T06:25:49.307Z,102028.41
2023-05-17T06:28:34.430Z,102019.38
2023-05-17T06:31:25.326Z,102030.31
2023-05-17T06:34:10.536Z,102026.72
2023-05-17T06:37:02.319Z,102030.06
2023-05-17T06:39:55.530Z,102026.41
2023-05-17T06:42:51.329Z,102019.34
2023-05-17T06:45:36.268Z,102017.78
2023-05-17T06:48:28.417Z,102003.78
2023-05-17T06:51:20.341Z,102002.88
2023-05-17T06:54:12.311Z,101999.69
2023-05-17T06:57:08.326Z,101993.69
2023-05-17T06:59:59.303Z,101989.22
2023-05-17T07:02:44.178Z,101991.38
2023-05-17T07:05:37.383Z,101986.22
2023-05-17T07:08:29.337Z,101993.59
2023-05-17T07:11:14.443Z,101993.28
2023-05-17T07:14:06.331Z,101993.84
2023-05-17T07:16:51.014Z,101988.69
2023-05-17T07:19:42.582Z,101997.25
2023-05-17T07:22:27.627Z,101997.38
2023-05-17T07:25:22.390Z,101993.28
2023-05-17T07:28:07.729Z,102010.97
2023-05-17T07:30:59.336Z,102008.13
2023-05-17T07:33:44.735Z,102009.44
2023-05-17T07:36:37.437Z,101999.94
2023-05-17T07:39:22.630Z,102003.69
2023-05-17T07:42:14.351Z,102003.72
2023-05-17T07:44:59.374Z,102009.94
2023-05-17T07:47:57.498Z,102002.03
2023-05-17T07:50:49.614Z,102007.56
2023-05-17T07:53:41.348Z,102009.44
2023-05-17T07:56:33.338Z,102014.91
2023-05-17T07:59:24.323Z,102007.34
2023-05-17T08:02:09.770Z,102007.13
2023-05-17T08:05:01.402Z,102009.41
2023-05-17T08:07:46.574Z,102006.78
2023-05-17T08:10:38.328Z,102010.38
2023-05-17T08:13:25.599Z,102005.75
2023-05-17T08:16:19.348Z,102008.44
2023-05-17T08:19:04.265Z,102010.22
2023-05-17T08:21:56.351Z,102011.50
2023-05-17T08:24:41.421Z,101994.59
2023-05-17T08:27:33.362Z,102009.53
2023-05-17T08:30:28.514Z,102006.06
2023-05-17T08:33:20.456Z,102009.41
2023-05-17T08:36:08.149Z,101999.94
2023-05-17T08:38:59.328Z,102003.53
2023-05-17T08:41:46.895Z,102009.91
2023-05-17T08:44:38.350Z,102000.91
2023-05-17T08:47:32.429Z,101999.75
2023-05-17T08:50:31.545Z,102010.84
2023-05-17T08:53:17.980Z,102012.19
2023-05-17T08:56:11.344Z,102021.94
2023-05-17T08:58:57.898Z,102013.69
2023-05-17T09:01:50.348Z,102015.22
2023-05-17T09:04:36.120Z,102011.44
2023-05-17T09:07:31.364Z,102018.59
2023-05-17T09:10:23.356Z,102017.03
2023-05-17T09:13:19.356Z,102012.13
2023-05-17T09:16:13.226Z,102014.91
2023-05-17T09:19:05.720Z,102002.25
2023-05-17T09:21:57.378Z,101991.63
2023-05-17T09:24:42.908Z,101995.16
2023-05-17T09:27:38.370Z,102003.81
2023-05-17T09:30:30.882Z,102006.81
2023-05-17T09:33:22.410Z,102007.88
2023-05-17T09:36:15.748Z,102010.06
2023-05-17T09:39:10.375Z,102013.88
2023-05-17T09:41:56.742Z,102010.25
2023-05-17T09:44:57.412Z,102012.00
2023-05-17T09:48:04.416Z,102016.25
2023-05-17T09:50:58.377Z,102011.94
2023-05-17T09:53:43.185Z,101995.22
2023-05-17T09:56:36.359Z,102004.97
2023-05-17T09:59:29.383Z,102001.56
2023-05-17T10:02:21.216Z,101995.53
2023-05-17T10:05:16.457Z,101994.53
2023-05-17T10:08:10.378Z,101994.94
2023-05-17T10:11:05.388Z,101985.28
2023-05-17T10:14:01.981Z,101998.13
2023-05-17T10:16:54.392Z,101993.50
2023-05-17T10:19:39.751Z,101989.53
2023-05-17T10:22:33.377Z,101993.16
2023-05-17T10:25:18.896Z,101980.44
2023-05-17T10:28:13.377Z,101994.53
2023-05-17T10:30:58.946Z,101982.72
2023-05-17T10:33:53.443Z,101983.91
2023-05-17T10:36:39.014Z,101985.25
2023-05-17T10:39:31.398Z,101970.34
2023-05-17T10:42:24.400Z,101988.00
2023-05-17T10:45:12.802Z,101978.53
2023-05-17T10:48:13.486Z,101985.78
2023-05-17T10:51:06.635Z,101981.47
2023-05-17T10:54:18.404Z,101990.31
2023-05-17T10:57:08.777Z,101973.16
2023-05-17T11:00:10.389Z,101977.78
2023-05-17T11:03:20.885Z,101973.09
2023-05-17T11:06:28.483Z,101972.13
2023-05-17T11:09:18.588Z,101977.75
2023-05-17T11:12:12.389Z,101971.19
2023-05-17T11:15:07.550Z,101963.50
2023-05-17T11:18:00.458Z,101957.28
2023-05-17T11:20:51.595Z,101962.28
2023-05-17T11:23:37.374Z,101962.66
2023-05-17T11:26:35.502Z,101955.41
2023-05-17T11:29:20.363Z,101955.28
2023-05-17T11:32:14.419Z,101951.34
2023-05-17T11:35:00.427Z,101960.81
2023-05-17T11:37:52.429Z,101958.63
2023-05-17T11:40:43.423Z,101961.19
2023-05-17T11:43:30.872Z,101949.50
2023-05-17T11:46:27.415Z,101950.19
2023-05-17T11:49:34.893Z,101948.16
2023-05-17T11:52:21.244Z,101957.88
2023-05-17T11:55:13.431Z,101955.22
2023-05-17T11:57:58.690Z,101958.63
2023-05-17T12:00:51.418Z,101958.53
2023-05-17T12:03:43.439Z,101947.50
2023-05-17T12:06:35.422Z,101941.53
2023-05-17T12:09:21.121Z,101948.19
2023-05-17T12:12:12.442Z,101955.44
2023-05-17T12:14:58.753Z,101943.53
2023-05-17T12:17:51.918Z,101938.66
2023-05-17T12:20:38.902Z,101948.50
2023-05-17T12:23:39.441Z,101940.00
2023-05-17T12:26:24.673Z,101935.50
2023-05-17T12:29:17.436Z,101943.00
2023-05-17T12:32:02.741Z,101933.28
2023-05-17T12:34:55.439Z,101929.97
2023-05-17T12:37:40.767Z,101933.13
2023-05-17T12:40:32.451Z,101939.81
2023-05-17T12:43:18.506Z,101937.31
2023-05-17T12:46:23.423Z,101940.94
2023-05-17T12:49:21.461Z,101935.09
2023-05-17T12:52:06.870Z,101929.44
2023-05-17T12:54:58.444Z,101933.59
2023-05-17T12:57:53.808Z,101943.84
2023-05-17T13:00:45.465Z,101932.94
2023-05-17T13:03:31.115Z,101933.13
2023-05-17T13:06:22.448Z,101940.47
2023-05-17T13:09:07.180Z,101933.91
2023-05-17T13:12:02.443Z,101934.97
2023-05-17T13:14:58.454Z,101938.66
2023-05-17T13:17:49.946Z,101933.31
2023-05-17T13:20:41.448Z,101930.63
2023-05-17T13:23:32.444Z,101930.63
2023-05-17T13:26:24.469Z,101929.16
2023-05-17T13:29:09.220Z,101928.78
2023-05-17T13:32:00.450Z,101933.97
2023-05-17T13:34:51.458Z,101931.75
2023-05-17T13:37:43.458Z,101925.66
2023-05-17T13:40:28.727Z,101927.47
2023-05-17T13:43:35.477Z,101929.28
2023-05-17T13:46:26.914Z,101921.94
2023-05-17T13:49:19.573Z,101919.91
2023-05-17T13:52:14.512Z,101915.31
2023-05-17T13:55:05.463Z,101923.44
2023-05-17T13:57:56.459Z,101928.59
2023-05-17T14:00:43.765Z,101924.91
2023-05-17T14:03:35.579Z,101922.41
2023-05-17T14:06:27.521Z,101920.16
2023-05-17T14:09:18.485Z,101921.94
2023-05-17T14:12:04.187Z,101919.41
2023-05-17T14:14:55.470Z,101916.59
2023-05-17T14:17:47.565Z,101912.19
2023-05-17T14:20:39.482Z,101907.03
2023-05-17T14:23:30.480Z,101906.69
2023-05-17T14:26:15.519Z,101920.41
2023-05-17T14:29:07.479Z,101913.56
2023-05-17T14:31:52.333Z,101911.25
2023-05-17T14:34:43.493Z,101912.75
2023-05-17T14:37:28.224Z,101901.88
2023-05-17T14:40:19.472Z,101895.78
2023-05-17T14:43:04.316Z,101898.72
2023-05-17T14:45:55.481Z,101898.72
2023-05-17T14:48:46.779Z,101893.94
2023-05-17T14:51:45.516Z,101896.75
2023-05-17T14:54:32.821Z,101897.34
2023-05-17T14:57:25.509Z,101894.00
2023-05-17T15:00:17.504Z,101890.97
2023-05-17T15:03:09.672Z,101889.53
2023-05-17T15:05:55.971Z,101896.19
2023-05-17T15:08:47.527Z,101893.19
2023-05-17T15:11:33.548Z,101889.66
2023-05-17T15:14:28.480Z,101893.78
2023-05-17T15:17:20.517Z,101894.19
2023-05-17T15:20:06.616Z,101891.13
2023-05-17T15:22:58.504Z,101894.94
2023-05-17T15:25:43.476Z,101891.66
2023-05-17T15:28:35.496Z,101893.31
2023-05-17T15:31:20.459Z,101892.97
2023-05-17T15:34:12.618Z,101892.69
2023-05-17T15:36:58.212Z,101888.66
2023-05-17T15:39:49.516Z,101886.53
2023-05-17T15:42:40.515Z,101885.09
2023-05-17T15:45:33.037Z,101887.31
2023-05-17T15:48:24.538Z,101888.19
2023-05-17T15:51:16.575Z,101897.78
2023-05-17T15:54:07.493Z,101897.44
2023-05-17T15:56:58.524Z,101894.06
2023-05-17T15:59:43.341Z,101887.94
2023-05-17T16:02:35.599Z,101887.25
2023-05-17T16:05:27.683Z,101880.91
2023-05-17T16:08:12.995Z,101888.47
2023-05-17T16:11:04.511Z,101891.56
2023-05-17T16:13:49.327Z,101885.16
2023-05-17T16:16:40.527Z,101885.44
2023-05-17T16:19:27.403Z,101886.88
2023-05-17T16:22:19.522Z,101888.72
2023-05-17T16:25:05.144Z,101881.88
2023-05-17T16:27:57.524Z,101884.91
2023-05-17T16:30:49.572Z,101876.88
2023-05-17T16:33:34.490Z,101892.56
2023-05-17T16:36:28.547Z,101878.56
2023-05-17T16:39:20.518Z,101881.47
2023-05-17T16:42:05.956Z,101881.56
2023-05-17T16:44:57.512Z,101883.06
2023-05-17T16:47:48.562Z,101883.06
2023-05-17T16:50:42.153Z,101884.53
2023-05-17T16:53:36.528Z,101888.06
2023-05-17T16:56:22.173Z,101890.91
2023-05-17T16:59:13.522Z,101887.81
2023-05-17T17:02:04.565Z,101895.69
2023-05-17T17:04:55.511Z,101898.31
2023-05-17T17:07:40.633Z,101888.44
2023-05-17T17:10:32.519Z,101901.59
2023-05-17T17:13:17.685Z,101894.59
2023-05-17T17:16:09.554Z,101902.88
2023-05-17T17:19:01.601Z,101900.19
2023-05-17T17:21:46.731Z,101894.22
2023-05-17T17:24:40.537Z,101887.03
2023-05-17T17:27:32.536Z,101886.84
2023-05-17T17:30:17.479Z,101890.38
2023-05-17T17:33:09.553Z,101897.72
2023-05-17T17:35:54.624Z,101899.38
2023-05-17T17:38:45.535Z,101903.56
2023-05-17T17:41:30.894Z,101903.63
2023-05-17T17:44:23.548Z,101901.81
2023-05-17T17:47:08.806Z,101900.91
2023-05-17T17:50:00.550Z,101903.41
2023-05-17T17:52:51.546Z,101908.34
2023-05-17T17:55:36.594Z,101904.81
2023-05-17T17:58:28.530Z,101906.22
2023-05-17T18:01:20.608Z,101905.38
2023-05-17T18:04:12.587Z,101908.38
2023-05-17T18:07:04.555Z,101906.78
2023-05-17T18:09:49.379Z,101905.56
2023-05-17T18:12:40.565Z,101912.06
2023-05-17T18:15:32.570Z,101912.38
2023-05-17T18:18:24.541Z,101917.31
2023-05-17T18:21:17.564Z,101917.09
2023-05-17T18:24:02.658Z,101911.38
2023-05-17T18:26:53.571Z,101922.66
2023-05-17T18:29:39.906Z,101918.47
2023-05-17T18:32:31.664Z,101922.44
2023-05-17T18:35:16.975Z,101915.72
2023-05-17T18:38:08.572Z,101925.16
2023-05-17T18:40:53.309Z,101920.44
2023-05-17T18:43:44.720Z,101921.06
2023-05-17T18:46:30.330Z,101923.16
2023-05-17T18:49:28.551Z,101926.28
2023-05-17T18:52:20.947Z,101929.69
2023-05-17T18:55:12.554Z,101925.56
2023-05-17T18:58:04.569Z,101930.34
2023-05-17T19:00:49.496Z,101931.19
2023-05-17T19:03:40.582Z,101929.66
2023-05-17T19:06:27.668Z,101935.44
2023-05-17T19:09:18.577Z,101935.00
2023-05-17T19:12:03.729Z,101940.06
2023-05-17T19:14:55.563Z,101941.63
2023-05-17T19:17:40.748Z,101947.28
2023-05-17T19:20:32.718Z,101954.47
2023-05-17T19:23:24.581Z,101952.53
2023-05-17T19:26:09.333Z,101958.28
2023-05-17T19:29:00.561Z,101953.97
2023-05-17T19:31:46.002Z,101963.22
2023-05-17T19:34:37.560Z,101957.34
2023-05-17T19:37:22.472Z,101962.66
2023-05-17T19:40:14.584Z,101966.03
2023-05-17T19:43:07.590Z,101969.13
2023-05-17T19:45:52.413Z,101969.56
2023-05-17T19:48:43.563Z,101978.63
2023-05-17T19:51:28.738Z,101966.91
2023-05-17T19:54:20.569Z,101969.94
2023-05-17T19:57:05.993Z,101972.50
2023-05-17T19:59:57.575Z,101978.50
2023-05-17T20:02:43.288Z,101971.09
2023-05-17T20:05:34.589Z,101968.03
2023-05-17T20:08:19.476Z,101968.03
2023-05-17T20:11:12.615Z,101971.22
2023-05-17T20:13:57.697Z,101968.69
2023-05-17T20:16:48.676Z,101975.56
2023-05-17T20:19:33.752Z,101974.00
2023-05-17T20:22:27.605Z,101981.66
2023-05-17T20:25:12.372Z,101982.34
2023-05-17T20:28:03.584Z,101975.88
2023-05-17T20:30:48.399Z,101988.41
2023-05-17T20:33:40.585Z,101993.00
2023-05-17T20:36:32.591Z,101988.38
2023-05-17T20:39:18.105Z,101998.91
2023-05-17T20:42:10.596Z,101995.81
2023-05-17T20:44:57.566Z,101986.69
2023-05-17T20:47:49.599Z,101993.41
2023-05-17T20:50:40.816Z,101992.22
2023-05-17T20:53:32.618Z,101996.13
2023-05-17T20:56:19.114Z,102000.84
2023-05-17T20:59:10.594Z,101999.69
2023-05-17T21:01:55.816Z,102001.63
2023-05-17T21:04:47.602Z,102002.00
2023-05-17T21:07:32.338Z,102005.88
2023-05-17T21:10:24.595Z,102002.28
2023-05-17T21:13:09.760Z,102014.22
2023-05-17T21:16:02.659Z,102016.03
2023-05-17T21:18:47.441Z,102014.47
2023-05-17T21:21:38.611Z,102015.72
2023-05-17T21:24:23.363Z,102024.88
2023-05-17T21:27:14.614Z,102018.28
2023-05-17T21:30:00.685Z,102020.94
2023-05-17T21:32:52.638Z,102022.44
2023-05-17T21:35:44.620Z,102019.44
2023-05-17T21:38:29.310Z,102017.78
2023-05-17T21:41:20.615Z,102017.28
2023-05-17T21:44:05.502Z,102015.63
2023-05-17T21:46:58.388Z,102022.09
2023-05-17T21:49:51.262Z,102010.44
2023-05-17T21:52:43.592Z,102019.00
2023-05-17T21:55:36.424Z,102019.25
2023-05-17T21:58:32.674Z,102021.91
2023-05-17T22:01:21.141Z,102020.75
2023-05-17T22:04:13.598Z,102020.38
2023-05-17T22:06:58.620Z,102011.72
2023-05-17T22:09:51.614Z,102023.31
2023-05-17T22:12:44.592Z,102018.38
2023-05-17T22:15:29.400Z,102025.38
2023-05-17T22:18:20.630Z,102013.09
2023-05-17T22:21:06.701Z,102017.81
2023-05-17T22:23:58.603Z,102020.56
2023-05-17T22:26:50.619Z,102022.88
2023-05-17T22:29:44.624Z,102025.88
2023-05-17T22:32:36.626Z,102027.56
2023-05-17T22:35:27.613Z,102022.75
2023-05-17T22:38:12.611Z,102025.38
2023-05-17T22:41:03.617Z,102026.38
2023-05-17T22:43:55.606Z,102021.31
2023-05-17T22:46:48.662Z,102021.91
2023-05-17T22:49:46.610Z,102020.94
2023-05-17T22:52:41.004Z,102018.78
2023-05-17T22:55:32.845Z,102021.19
2023-05-17T22:58:18.418Z,102022.72
2023-05-17T23:01:10.616Z,102030.41
2023-05-17T23:03:56.582Z,102034.28
2023-05-17T23:06:48.633Z,102028.75
2023-05-17T23:09:40.852Z,102025.50
2023-05-17T23:12:27.409Z,102026.81
2023-05-17T23:15:18.636Z,102026.56
2023-05-17T23:18:04.049Z,102024.28
2023-05-17T23:20:55.627Z,102029.56
2023-05-17T23:23:40.535Z,102031.31
2023-05-17T23:26:33.660Z,102041.41
2023-05-17T23:29:25.628Z,102039.63
2023-05-17T23:32:18.423Z,102035.25
2023-05-17T23:35:10.628Z,102040.75
2023-05-17T23:38:02.637Z,102041.34
2023-05-17T23:40:47.789Z,102031.53
2023-05-17T23:43:39.626Z,102036.47
2023-05-17T23:46:24.851Z,102041.81
2023-05-17T23:49:16.628Z,102032.44
2023-05-17T23:52:17.698Z,102039.16
2023-05-17T23:55:09.640Z,102042.34
2023-05-17T23:57:54.462Z,102039.91
